Πλησιέστερες Αναφορές METAR

 

LGTS - Thessaloniki/Makedonia-Elev 7m
Απόσταση από σταθμό: Ν 13km
Ενημερώθηκε: 24/05/2017 22:20
Μερικώς νεφελώδης
Μερικώς νεφελώδης
 Ανεμοι από Α
Ανεμος: Α 7 km/h
Θερμοκρασία: 17°C
Σημείο Δρόσου: 14°C
Υγρασία: 83%
Βαρόμετρο: 1015 hPa
Νέφωση: Μερικώς νεφελώδης
Ορατότητα: 10 km
Λεπτομέρειες Νεφών: Διάσπαρτα Νέφη 610 m
Μερικώς νεφελώδης 762 m
2017/05/24 19:20 LGTS 241920Z 09004KT 9999 FEW020TCU SCT025 17/14 Q1015 NOSIG
LGAV - Athens/Elef. Venizelos-Elev 94m
Απόσταση από σταθμό: ΝΝΑ 312km
Ενημερώθηκε: 24/05/2017 22:20
Αίθριος
Αίθριος
 Ανεμοι από μεταβλητός
Ανεμος: μεταβλητός 4 km/h
Θερμοκρασία: 19°C
Σημείο Δρόσου: 14°C
Υγρασία: 73%
Βαρόμετρο: 1016 hPa
Περίληψη: Αίθριος
Ορατότητα: πάνω από 10 km
2017/05/24 19:20 LGAV 241920Z VRB02KT CAVOK 19/14 Q1016 NOSIG
 
LGAL - Alexandroupolis-Elev 3m
Απόσταση από σταθμό: Α 251km
Ενημερώθηκε: 24/05/2017 22:20
Διάσπαρτα Νέφη
Διάσπαρτα Νέφη
 Ανεμοι από άπνοια
Ανεμος: άπνοια
Θερμοκρασία: 16°C
Σημείο Δρόσου: 11°C
Υγρασία: 72%
Βαρόμετρο: 1014 hPa
Νέφωση: Διάσπαρτα Νέφη
Ορατότητα: 10 km
Λεπτομέρειες Νεφών: Διάσπαρτα Νέφη 1067 m
2017/05/24 19:20 LGAL 241920Z 00000KT 9999 FEW035 16/11 Q1014
LGKV - Kavala/Crysoupolis-Elev 5m
Απόσταση από σταθμό: ΑΒΑ 144km
Ενημερώθηκε: 24/05/2017 22:20
Μερικώς νεφελώδης
Μερικώς νεφελώδης
 Ανεμοι από ΔΝΔ
Ανεμος: ΔΝΔ 9 km/h
Θερμοκρασία: 18°C
Σημείο Δρόσου: 14°C
Υγρασία: 78%
Βαρόμετρο: 1016 hPa
Νέφωση: Μερικώς νεφελώδης
Ορατότητα: 10 km
Λεπτομέρειες Νεφών: Διάσπαρτα Νέφη 762 m
Μερικώς νεφελώδης 2438 m
2017/05/24 19:20 LGKV 241920Z 25005KT 9999 FEW025 SCT080 18/14 Q1016
 
LGSK - Skiathos Island-Elev 15m
Απόσταση από σταθμό: ΝΝΑ 168km
Ενημερώθηκε: 24/05/2017 21:50
Μερικώς νεφελώδης
Μερικώς νεφελώδης
 Ανεμοι από ΝΝΔ
Ανεμος: ΝΝΔ 13 km/h
Θερμοκρασία: 18°C
Σημείο Δρόσου: 15°C
Υγρασία: 83%
Βαρόμετρο: 1015 hPa
Νέφωση: Μερικώς νεφελώδης
Ορατότητα: 10 km
Λεπτομέρειες Νεφών: Διάσπαρτα Νέφη 610 m
Μερικώς νεφελώδης 914 m
2017/05/24 18:50 LGSK 241850Z 20007KT 9999 FEW020 SCT030 18/15 Q1015
LGLM - Limnos Island-Elev 5m
Απόσταση από σταθμό: ΑΝΑ 210km
Ενημερώθηκε: 24/05/2017 22:20
Μερικώς νεφελώδης
Μερικώς νεφελώδης
 Ανεμοι από άπνοια
Ανεμος: άπνοια
Θερμοκρασία: 18°C
Σημείο Δρόσου: 13°C
Υγρασία: 73%
Βαρόμετρο: 1015 hPa
Νέφωση: Μερικώς νεφελώδης
Ορατότητα: 10 km
Λεπτομέρειες Νεφών: Διάσπαρτα Νέφη 762 m
Μερικώς νεφελώδης 2438 m
2017/05/24 19:20 LGLM 241920Z 00000KT 9999 FEW025 SCT080 18/13 Q1015
 
LGMT - Mitilini Island-Elev 17m
Απόσταση από σταθμό: ΑΝΑ 358km
Ενημερώθηκε: 24/05/2017 22:20
Αίθριος
Αίθριος
 Ανεμοι από άπνοια
Ανεμος: άπνοια
Θερμοκρασία: 21°C
Σημείο Δρόσου: 9°C
Υγρασία: 46%
Βαρόμετρο: 1015 hPa
Περίληψη: Αίθριος
Ορατότητα: πάνω από 10 km
2017/05/24 19:20 LGMT 241920Z 00000KT CAVOK 21/09 Q1015
LGSY - Skiros Island-Elev 15m
Απόσταση από σταθμό: ΝΑ 227km
Ενημερώθηκε: 24/05/2017 21:50
Διάσπαρτα Νέφη
Διάσπαρτα Νέφη
 Ανεμοι από άπνοια
Ανεμος: άπνοια
Θερμοκρασία: 19°C
Σημείο Δρόσου: 16°C
Υγρασία: 83%
Βαρόμετρο: 1014 hPa
Νέφωση: Διάσπαρτα Νέφη
Ορατότητα: 10 km
Λεπτομέρειες Νεφών: Διάσπαρτα Νέφη 914 m
2017/05/24 18:50 LGSY 241850Z 00000KT 9999 FEW030 19/16 Q1014 RMK SCT080 SCT180 BLU
 
LGKZ - Kozani-Elev 628m
Απόσταση από σταθμό: ΔΝΔ 102km
Ενημερώθηκε: 24/05/2017 20:50
ΜΗ Ενημερωμένο METAR!
Ασθενής βροχή, Σχεδόν νεφελώδης
Ασθενής βροχή, Σχεδόν νεφελώδης
 Ανεμοι από άπνοια
Ανεμος: άπνοια
Θερμοκρασία: 14°C
Σημείο Δρόσου: 12°C
Υγρασία: 88%
Βαρόμετρο: 1017 hPa
Περίληψη: Ασθενής βροχή
Νέφωση: Σχεδόν νεφελώδης
Ορατότητα: 10 km
Λεπτομέρειες Νεφών: Μερικώς νεφελώδης 762 m
Σχεδόν νεφελώδης 2134 m
2017/05/24 17:50 LGKZ 241750Z 00000KT 9999 -RA SCT025 BKN070 14/12 Q1017
LGIO - Ioannina-Elev 476m
Απόσταση από σταθμό: ΔΝΔ 209km
Ενημερώθηκε: 24/05/2017 22:20
Μερικώς νεφελώδης
Μερικώς νεφελώδης
 Ανεμοι από μεταβλητός
Ανεμος: μεταβλητός 0 km/h
Θερμοκρασία: 16°C
Σημείο Δρόσου: 12°C
Υγρασία: 77%
Βαρόμετρο: 1018 hPa
Νέφωση: Μερικώς νεφελώδης
Ορατότητα: 10 km
Λεπτομέρειες Νεφών: Μερικώς νεφελώδης 1067 m
Μερικώς νεφελώδης 5486 m
2017/05/24 19:20 LGIO 241920Z /////KT 9999 SCT035 SCT180 16/12 Q1018
 
LGZA - Zakinthos-Elev 3m
Απόσταση από σταθμό: ΝΝΔ 367km
Ενημερώθηκε: 24/05/2017 21:50
Διάσπαρτα Νέφη
Διάσπαρτα Νέφη
 Ανεμοι από άπνοια
Ανεμος: άπνοια
Θερμοκρασία: 21°C
Σημείο Δρόσου: 16°C
Υγρασία: 73%
Βαρόμετρο: 1015 hPa
Νέφωση: Διάσπαρτα Νέφη
Ορατότητα: 10 km
Λεπτομέρειες Νεφών: Διάσπαρτα Νέφη 610 m
2017/05/24 18:50 LGZA 241850Z 00000KT 9999 FEW020 21/16 Q1015
LGKR - Corfu Island-Elev 2m
Απόσταση από σταθμό: ΔΝΔ 282km
Ενημερώθηκε: 24/05/2017 22:20
Διάσπαρτα Νέφη
Διάσπαρτα Νέφη
 Ανεμοι από ΔΝΔ
Ανεμος: ΔΝΔ 6 km/h
Θερμοκρασία: 20°C
Σημείο Δρόσου: 17°C
Υγρασία: 83%
Βαρόμετρο: 1015 hPa
Νέφωση: Διάσπαρτα Νέφη
Ορατότητα: 10 km
Λεπτομέρειες Νεφών: Διάσπαρτα Νέφη 610 m
2017/05/24 19:20 LGKR 241920Z 25003KT 9999 FEW020 20/17 Q1015 NOSIG
 
LGSO - Syros Island-Elev 72m
Απόσταση από σταθμό: ΝΝΑ 397km
Ενημερώθηκε: 24/05/2017 13:50
ΜΗ Ενημερωμένο METAR!
Διάσπαρτα Νέφη
Διάσπαρτα Νέφη
 Ανεμοι από ΝΝΑ
Ανεμος: ΝΝΑ 13 km/h
Θερμοκρασία: 26°C
Σημείο Δρόσου: 12°C
Υγρασία: 42%
Βαρόμετρο: 1016 hPa
Νέφωση: Διάσπαρτα Νέφη
Ορατότητα: 10 km
Λεπτομέρειες Νεφών: Διάσπαρτα Νέφη 549 m
2017/05/24 10:50 LGSO 241050Z 16007KT 9999 FEW018 26/12 Q1016
LGMK - Mikonos Island-Elev 123m
Απόσταση από σταθμό: ΝΝΑ 412km
Ενημερώθηκε: 24/05/2017 22:20
Αίθριος
Αίθριος
 Ανεμοι από άπνοια
Ανεμος: άπνοια
Θερμοκρασία: 19°C
Σημείο Δρόσου: 13°C
Υγρασία: 68%
Βαρόμετρο: 1015 hPa
Περίληψη: Αίθριος
Ορατότητα: πάνω από 10 km
2017/05/24 19:20 LGMK 241920Z 00000KT CAVOK 19/13 Q1015
 
LGSR - Santorini Island-Elev 40m
Απόσταση από σταθμό: ΝΝΑ 520km
Ενημερώθηκε: 24/05/2017 22:20
Μερικώς νεφελώδης
Μερικώς νεφελώδης
 Ανεμοι από Δ
Ανεμος: Δ 13 km/h
Θερμοκρασία: 20°C
Σημείο Δρόσου: 16°C
Υγρασία: 78%
Βαρόμετρο: 1015 hPa
Νέφωση: Μερικώς νεφελώδης
Ορατότητα: 10 km
Λεπτομέρειες Νεφών: Διάσπαρτα Νέφη 488 m
Μερικώς νεφελώδης 762 m
2017/05/24 19:20 LGSR 241920Z 26007KT 9999 FEW016 SCT025 20/16 Q1015
LGKL - Kalamata-Elev 8m
Απόσταση από σταθμό: Ν 405km
Ενημερώθηκε: 24/05/2017 22:20
Διάσπαρτα Νέφη
Διάσπαρτα Νέφη
 Ανεμοι από Β
Ανεμος: Β 9 km/h
Θερμοκρασία: 19°C
Σημείο Δρόσου: 13°C
Υγρασία: 68%
Βαρόμετρο: 1016 hPa
Νέφωση: Διάσπαρτα Νέφη
Ορατότητα: 10 km
Λεπτομέρειες Νεφών: Διάσπαρτα Νέφη 914 m
2017/05/24 19:20 LGKL 241920Z 35005KT 9999 FEW030 19/13 Q1016
 
LGIR - Iraklion/Crete-Elev 5m
Απόσταση από σταθμό: ΝΝΑ 622km
Ενημερώθηκε: 24/05/2017 22:20
Διάσπαρτα Νέφη
Διάσπαρτα Νέφη
 Ανεμοι από μεταβλητός
Ανεμος: μεταβλητός 2 km/h
Θερμοκρασία: 21°C
Σημείο Δρόσου: 18°C
Υγρασία: 83%
Βαρόμετρο: 1015 hPa
Νέφωση: Διάσπαρτα Νέφη
Ορατότητα: 10 km
Λεπτομέρειες Νεφών: Διάσπαρτα Νέφη 610 m
2017/05/24 19:20 LGIR 241920Z VRB01KT 9999 FEW020 21/18 Q1015 NOSIG
LGRP - Rhodes-Elev 5m
Απόσταση από σταθμό: ΝΑ 649km
Ενημερώθηκε: 24/05/2017 22:20
Διάσπαρτα Νέφη
Διάσπαρτα Νέφη
 Ανεμοι από ΔΝΔ
Ανεμος: ΔΝΔ 13 km/h
Θερμοκρασία: 20°C
Σημείο Δρόσου: 13°C
Υγρασία: 64%
Βαρόμετρο: 1015 hPa
Νέφωση: Διάσπαρτα Νέφη
Ορατότητα: 10 km
Λεπτομέρειες Νεφών: Διάσπαρτα Νέφη 610 m
2017/05/24 19:20 LGRP 241920Z 24007KT 9999 FEW020 20/13 Q1015 NOSIG
 
LWOH - Ohrid/FYROM-Elev 761m
Απόσταση από σταθμό: ΔΒΔ 188km
Ενημερώθηκε: 24/05/2017 21:00
ΜΗ Ενημερωμένο METAR!
Σχεδόν νεφελώδης
Σχεδόν νεφελώδης
 Ανεμοι από ΑΒΑ
Ανεμος: ΑΒΑ 6 km/h
Θερμοκρασία: 16°C
Σημείο Δρόσου: 10°C
Υγρασία: 68%
Βαρόμετρο: 1017 hPa
Νέφωση: Σχεδόν νεφελώδης
Ορατότητα: 10 km
Λεπτομέρειες Νεφών: Μερικώς νεφελώδης 1372 m
Σχεδόν νεφελώδης 2438 m
2017/05/24 18:00 LWOH 241800Z 07003KT 9999 SCT045 BKN080 16/10 Q1017
LBSF - Sofia/Bulgaria-Elev 595m
Απόσταση από σταθμό: Β 227km
Ενημερώθηκε: 24/05/2017 22:00
Σχεδόν νεφελώδης
Σχεδόν νεφελώδης
 Ανεμοι από μεταβλητός
Ανεμος: μεταβλητός 2 km/h
Θερμοκρασία: 15°C
Σημείο Δρόσου: 15°C
Υγρασία: 100%
Βαρόμετρο: 1016 hPa
Νέφωση: Σχεδόν νεφελώδης
Ορατότητα: 10 km
Λεπτομέρειες Νεφών: Σχεδόν νεφελώδης 1981 m
2017/05/24 19:00 LBSF 241900Z VRB01KT 9999 BKN065 15/15 Q1016 NOSIG